createdAt,value
2022-09-14T00:02:13.883Z,14.20
2022-09-14T00:04:42.356Z,14.20
2022-09-14T00:07:10.627Z,14.20
2022-09-14T00:09:38.908Z,14.10
2022-09-14T00:12:07.838Z,14.10
2022-09-14T00:14:37.790Z,14.10
2022-09-14T00:17:06.262Z,14.10
2022-09-14T00:19:34.578Z,14.00
2022-09-14T00:22:03.256Z,14.00
2022-09-14T00:24:32.034Z,13.90
2022-09-14T00:27:00.611Z,13.90
2022-09-14T00:29:28.919Z,13.80
2022-09-14T00:31:59.067Z,13.80
2022-09-14T00:34:28.188Z,13.70
2022-09-14T00:36:56.589Z,13.70
2022-09-14T00:39:26.103Z,13.70
2022-09-14T00:41:55.012Z,13.60
2022-09-14T00:45:02.282Z,13.50
2022-09-14T00:47:33.996Z,13.50
2022-09-14T00:50:05.625Z,13.40
2022-09-14T00:52:36.609Z,13.40
2022-09-14T00:55:08.231Z,13.40
2022-09-14T00:57:39.665Z,13.40
2022-09-14T01:00:12.219Z,13.40
2022-09-14T01:02:42.453Z,13.40
2022-09-14T01:05:14.754Z,13.40
2022-09-14T01:08:11.295Z,13.50
2022-09-14T01:10:54.262Z,13.50
2022-09-14T01:13:34.101Z,13.50
2022-09-14T01:16:12.946Z,13.50
2022-09-14T01:18:47.381Z,13.50
2022-09-14T01:21:20.594Z,13.50
2022-09-14T01:24:10.580Z,13.50
2022-09-14T01:27:08.433Z,13.50
2022-09-14T01:29:43.516Z,13.50
2022-09-14T01:32:18.070Z,13.50
2022-09-14T01:34:53.782Z,13.50
2022-09-14T01:37:28.351Z,13.50
2022-09-14T01:40:03.358Z,13.50
2022-09-14T01:42:32.907Z,13.40
2022-09-14T01:45:07.977Z,13.40
2022-09-14T01:47:49.989Z,13.40
2022-09-14T01:50:23.141Z,13.30
2022-09-14T01:52:57.336Z,13.30
2022-09-14T01:55:29.343Z,13.30
2022-09-14T01:58:08.591Z,13.30
2022-09-14T02:00:45.988Z,13.30
2022-09-14T02:03:18.425Z,13.30
2022-09-14T02:05:56.850Z,13.30
2022-09-14T02:08:37.395Z,13.30
2022-09-14T02:11:09.737Z,13.30
2022-09-14T02:13:41.130Z,13.40
2022-09-14T02:16:18.556Z,13.40
2022-09-14T02:18:46.943Z,13.40
2022-09-14T02:21:18.104Z,13.50
2022-09-14T02:23:52.757Z,13.50
2022-09-14T02:26:24.316Z,13.50
2022-09-14T02:28:56.008Z,13.60
2022-09-14T02:31:35.082Z,13.60
2022-09-14T02:34:10.224Z,13.60
2022-09-14T02:36:57.148Z,13.60
2022-09-14T02:39:35.838Z,13.60
2022-09-14T02:42:25.026Z,13.60
2022-09-14T02:45:06.338Z,13.60
2022-09-14T02:47:55.768Z,13.60
2022-09-14T02:50:37.174Z,13.70
2022-09-14T02:53:35.969Z,13.60
2022-09-14T02:56:09.053Z,13.60
2022-09-14T02:58:39.086Z,13.70
2022-09-14T03:01:12.781Z,13.70
2022-09-14T03:03:45.175Z,13.70
2022-09-14T03:08:59.108Z,13.60
2022-09-14T03:11:27.865Z,13.60
2022-09-14T03:14:05.443Z,13.60
2022-09-14T03:16:34.254Z,13.60
2022-09-14T03:19:10.848Z,13.60
2022-09-14T03:21:40.598Z,13.60
2022-09-14T03:24:27.869Z,13.60
2022-09-14T03:27:01.759Z,13.70
2022-09-14T03:29:32.834Z,13.70
2022-09-14T03:32:01.229Z,13.70
2022-09-14T03:34:36.763Z,13.70
2022-09-14T03:37:06.760Z,13.70
2022-09-14T03:39:35.166Z,13.70
2022-09-14T03:42:11.243Z,13.70
2022-09-14T03:44:40.246Z,13.60
2022-09-14T03:47:12.214Z,13.60
2022-09-14T03:49:49.568Z,13.60
2022-09-14T03:52:18.246Z,13.50
2022-09-14T03:54:48.748Z,13.50
2022-09-14T03:57:19.046Z,13.50
2022-09-14T03:59:51.299Z,13.50
2022-09-14T04:02:20.014Z,13.50
2022-09-14T04:04:49.670Z,13.40
2022-09-14T04:07:18.541Z,13.40
2022-09-14T04:09:47.181Z,13.40
2022-09-14T04:12:16.315Z,13.40
2022-09-14T04:14:45.523Z,13.40
2022-09-14T04:17:14.920Z,13.40
2022-09-14T04:19:43.311Z,13.30
2022-09-14T04:22:13.366Z,13.30
2022-09-14T04:24:44.060Z,13.20
2022-09-14T04:27:21.568Z,13.20
2022-09-14T04:29:57.062Z,13.20
2022-09-14T04:32:34.592Z,13.20
2022-09-14T04:35:03.954Z,13.20
2022-09-14T04:37:36.768Z,13.20
2022-09-14T04:40:05.927Z,13.20
2022-09-14T04:42:34.295Z,13.20
2022-09-14T04:45:05.775Z,13.20
2022-09-14T04:47:34.131Z,13.20
2022-09-14T04:50:04.648Z,13.10
2022-09-14T04:52:36.146Z,13.10
2022-09-14T04:55:04.746Z,13.10
2022-09-14T04:57:33.132Z,13.10
2022-09-14T05:00:02.029Z,13.10
2022-09-14T05:02:35.206Z,13.10
2022-09-14T05:05:03.572Z,13.10
2022-09-14T05:07:31.930Z,13.10
2022-09-14T05:10:02.011Z,13.10
2022-09-14T05:12:37.144Z,13.00
2022-09-14T05:15:06.760Z,13.10
2022-09-14T05:17:35.889Z,13.00
2022-09-14T05:20:10.560Z,13.10
2022-09-14T05:22:39.346Z,13.20
2022-09-14T05:25:15.097Z,13.30
2022-09-14T05:27:44.295Z,13.30
2022-09-14T05:30:13.176Z,13.40
2022-09-14T05:32:41.990Z,13.40
2022-09-14T05:35:11.251Z,13.50
2022-09-14T05:37:39.539Z,13.50
2022-09-14T05:40:11.040Z,13.60
2022-09-14T05:42:39.366Z,13.60
2022-09-14T05:45:11.546Z,13.60
2022-09-14T05:47:39.782Z,13.70
2022-09-14T05:50:09.527Z,13.80
2022-09-14T05:52:40.786Z,13.90
2022-09-14T05:55:10.834Z,13.90
2022-09-14T05:57:39.092Z,14.00
2022-09-14T06:00:10.121Z,14.10
2022-09-14T06:02:50.472Z,14.10
2022-09-14T06:05:22.885Z,14.20
2022-09-14T06:07:52.907Z,14.20
2022-09-14T06:10:23.416Z,14.20
2022-09-14T06:12:55.360Z,14.20
2022-09-14T06:15:24.744Z,14.20
2022-09-14T06:17:53.194Z,14.20
2022-09-14T06:20:21.425Z,14.20
2022-09-14T06:22:49.674Z,14.30
2022-09-14T06:25:19.404Z,14.30
2022-09-14T06:27:49.485Z,14.30
2022-09-14T06:30:18.195Z,14.30
2022-09-14T06:32:46.423Z,14.30
2022-09-14T06:35:15.000Z,14.30
2022-09-14T06:37:43.216Z,14.40
2022-09-14T06:40:14.768Z,14.40
2022-09-14T06:42:44.386Z,14.40
2022-09-14T06:45:22.938Z,14.40
2022-09-14T06:47:51.137Z,14.40
2022-09-14T06:50:19.528Z,14.40
2022-09-14T06:52:47.689Z,14.50
2022-09-14T06:55:16.009Z,14.50
2022-09-14T06:57:45.009Z,14.60
2022-09-14T07:00:16.549Z,14.60
2022-09-14T07:02:45.234Z,14.60
2022-09-14T07:05:14.098Z,14.60
2022-09-14T07:07:42.392Z,14.60
2022-09-14T07:10:11.767Z,14.70
2022-09-14T07:12:44.228Z,14.70
2022-09-14T07:15:14.476Z,14.90
2022-09-14T07:17:45.996Z,15.00
2022-09-14T07:20:17.502Z,15.00
2022-09-14T07:22:46.267Z,15.10
2022-09-14T07:25:15.779Z,15.20
2022-09-14T07:27:43.989Z,15.30
2022-09-14T07:30:12.643Z,15.30
2022-09-14T07:32:42.398Z,15.30
2022-09-14T07:35:18.123Z,15.40
2022-09-14T07:37:46.438Z,15.50
2022-09-14T07:40:14.779Z,15.50
2022-09-14T07:42:54.362Z,15.40
2022-09-14T07:45:25.682Z,15.20
2022-09-14T07:47:57.778Z,15.30
2022-09-14T07:50:26.105Z,15.30
2022-09-14T07:52:54.352Z,15.30
2022-09-14T07:55:22.700Z,15.40
2022-09-14T07:57:56.509Z,15.40
2022-09-14T08:00:25.686Z,15.40
2022-09-14T08:02:58.027Z,15.40
2022-09-14T08:05:27.465Z,15.50
2022-09-14T08:07:56.362Z,15.50
2022-09-14T08:10:27.298Z,15.50
2022-09-14T08:12:56.540Z,15.60
2022-09-14T08:15:28.448Z,15.60
2022-09-14T08:17:58.592Z,15.70
2022-09-14T08:20:27.015Z,15.70
2022-09-14T08:22:55.220Z,15.80
2022-09-14T08:25:23.541Z,16.00
2022-09-14T08:27:51.838Z,16.00
2022-09-14T08:30:20.018Z,16.10
2022-09-14T08:33:16.029Z,16.00
2022-09-14T08:36:01.368Z,16.10
2022-09-14T08:38:30.294Z,16.20
2022-09-14T08:41:02.284Z,16.40
2022-09-14T08:43:31.149Z,16.50
2022-09-14T08:46:16.517Z,16.40
2022-09-14T08:48:49.564Z,16.40
2022-09-14T08:51:26.545Z,16.40
2022-09-14T08:54:01.422Z,16.50
2022-09-14T08:57:02.439Z,16.60
2022-09-14T09:03:05.970Z,16.70
2022-09-14T09:09:20.751Z,16.90
2022-09-14T09:12:20.242Z,16.90
2022-09-14T09:15:34.799Z,16.80
2022-09-14T09:22:30.428Z,16.60
2022-09-14T09:25:07.349Z,16.60
2022-09-14T09:39:04.402Z,17.10
2022-09-14T09:41:59.899Z,17.10
2022-09-14T09:44:28.837Z,17.20
2022-09-14T09:47:20.654Z,17.30
2022-09-14T09:50:20.395Z,17.40
2022-09-14T09:53:45.847Z,17.50
2022-09-14T09:57:29.483Z,17.60
2022-09-14T10:06:48.752Z,17.50
2022-09-14T10:09:37.249Z,17.50
2022-09-14T10:12:28.492Z,17.50
2022-09-14T10:15:36.366Z,17.60
2022-09-14T10:22:17.347Z,17.50
2022-09-14T10:25:42.273Z,17.40
2022-09-14T10:28:38.934Z,17.30
2022-09-14T10:31:25.431Z,17.20
2022-09-14T10:33:59.076Z,17.20
2022-09-14T10:36:37.660Z,17.30
2022-09-14T10:39:17.904Z,17.30
2022-09-14T10:41:54.669Z,17.40
2022-09-14T10:44:49.920Z,17.50
2022-09-14T10:47:29.630Z,17.50
2022-09-14T10:50:26.378Z,17.50
2022-09-14T10:53:14.715Z,17.40
2022-09-14T10:58:52.250Z,17.50
2022-09-14T11:01:37.070Z,17.60
2022-09-14T11:04:23.872Z,17.70
2022-09-14T11:07:02.768Z,17.80
2022-09-14T11:09:46.143Z,18.00
2022-09-14T11:12:25.506Z,18.20
2022-09-14T11:15:08.417Z,18.40
2022-09-14T11:18:06.187Z,18.50
2022-09-14T11:20:56.699Z,18.60
2022-09-14T11:23:41.972Z,18.80
2022-09-14T11:26:15.875Z,18.90
2022-09-14T11:28:59.562Z,19.00
2022-09-14T11:31:33.167Z,18.80
2022-09-14T11:34:15.117Z,18.70
2022-09-14T11:36:47.251Z,18.60
2022-09-14T11:39:32.185Z,18.60
2022-09-14T11:42:11.797Z,18.70
2022-09-14T11:44:42.199Z,18.80
2022-09-14T11:47:20.903Z,18.80
2022-09-14T11:50:02.011Z,18.80
2022-09-14T11:52:44.954Z,18.60
2022-09-14T11:55:25.540Z,18.40
2022-09-14T11:57:54.276Z,18.20
2022-09-14T12:00:50.373Z,18.10
2022-09-14T12:03:20.070Z,18.00
2022-09-14T12:05:52.594Z,17.90
2022-09-14T12:08:40.769Z,17.90
2022-09-14T12:11:41.549Z,18.00
2022-09-14T12:14:33.168Z,18.20
2022-09-14T12:17:41.267Z,18.20
2022-09-14T12:20:47.266Z,18.20
2022-09-14T12:23:43.518Z,18.20
2022-09-14T12:26:39.784Z,18.10
2022-09-14T12:29:33.967Z,18.00
2022-09-14T12:32:46.634Z,18.00
2022-09-14T12:35:45.408Z,17.90
2022-09-14T12:38:57.098Z,18.00
2022-09-14T12:42:02.446Z,18.00
2022-09-14T12:44:36.361Z,18.00
2022-09-14T12:47:41.876Z,18.20
2022-09-14T12:50:16.924Z,18.30
2022-09-14T12:53:05.700Z,18.60
2022-09-14T12:56:03.783Z,18.70
2022-09-14T12:58:59.917Z,18.80
2022-09-14T13:01:45.826Z,19.00
2022-09-14T13:04:37.094Z,19.20
2022-09-14T13:07:27.060Z,19.40
2022-09-14T13:10:03.752Z,19.40
2022-09-14T13:12:48.314Z,19.50
2022-09-14T13:15:40.273Z,19.50
2022-09-14T13:18:35.800Z,19.50
2022-09-14T13:21:31.925Z,19.40
2022-09-14T13:24:25.889Z,19.30
2022-09-14T13:27:08.396Z,19.10
2022-09-14T13:29:57.796Z,18.90
2022-09-14T13:32:41.009Z,18.80
2022-09-14T13:35:44.023Z,18.60
2022-09-14T13:38:19.240Z,18.40
2022-09-14T13:40:51.085Z,18.30
2022-09-14T13:43:27.400Z,18.30
2022-09-14T13:46:08.587Z,18.20
2022-09-14T13:49:20.189Z,18.20
2022-09-14T13:51:47.037Z,18.20
2022-09-14T13:54:28.560Z,18.10
2022-09-14T13:57:18.296Z,18.10
2022-09-14T14:00:15.055Z,18.10
2022-09-14T14:02:47.487Z,18.10
2022-09-14T14:05:29.187Z,18.10
2022-09-14T14:08:33.647Z,18.10
2022-09-14T14:11:13.814Z,18.20
2022-09-14T14:13:55.189Z,18.30
2022-09-14T14:16:26.671Z,18.30
2022-09-14T14:18:59.291Z,18.30
2022-09-14T14:21:34.342Z,18.20
2022-09-14T14:24:29.787Z,18.20
2022-09-14T14:27:01.475Z,18.20
2022-09-14T14:30:01.941Z,18.10
2022-09-14T14:32:31.266Z,18.10
2022-09-14T14:35:13.165Z,18.00
2022-09-14T14:37:45.224Z,18.00
2022-09-14T14:40:20.587Z,18.00
2022-09-14T14:42:50.443Z,18.00
2022-09-14T14:45:22.336Z,18.00
2022-09-14T14:48:13.893Z,18.00
2022-09-14T14:50:42.596Z,18.00
2022-09-14T14:53:15.815Z,17.90
2022-09-14T14:55:45.135Z,18.00
2022-09-14T14:58:18.413Z,18.00
2022-09-14T15:00:49.366Z,18.00
2022-09-14T15:03:19.217Z,17.90
2022-09-14T15:05:49.531Z,17.90
2022-09-14T15:08:28.089Z,17.80
2022-09-14T15:11:06.418Z,17.80
2022-09-14T15:13:37.235Z,17.80
2022-09-14T15:16:09.485Z,17.70
2022-09-14T15:18:38.815Z,17.50
2022-09-14T15:21:08.488Z,17.60
2022-09-14T15:23:39.351Z,17.60
2022-09-14T15:26:08.223Z,17.50
2022-09-14T15:28:38.776Z,17.50
2022-09-14T15:31:22.307Z,17.40
2022-09-14T15:33:51.033Z,17.30
2022-09-14T15:36:41.695Z,17.30
2022-09-14T15:39:14.255Z,17.20
2022-09-14T15:41:43.511Z,17.00
2022-09-14T15:44:12.893Z,17.00
2022-09-14T15:46:44.080Z,17.00
2022-09-14T15:49:14.869Z,16.90
2022-09-14T15:51:44.256Z,16.70
2022-09-14T15:54:14.646Z,16.60
2022-09-14T15:56:43.346Z,16.60
2022-09-14T15:59:11.829Z,16.50
2022-09-14T16:01:40.298Z,16.50
2022-09-14T16:04:11.951Z,16.40
2022-09-14T16:06:40.852Z,16.30
2022-09-14T16:09:12.076Z,16.20
2022-09-14T16:11:42.799Z,16.10
2022-09-14T16:14:12.467Z,16.10
2022-09-14T16:16:41.645Z,16.00
2022-09-14T16:19:15.035Z,15.90
2022-09-14T16:21:43.996Z,15.90
2022-09-14T16:24:16.177Z,15.80
2022-09-14T16:26:54.537Z,15.80
2022-09-14T16:29:24.419Z,15.70
2022-09-14T16:31:53.877Z,15.60
2022-09-14T16:34:24.530Z,15.60
2022-09-14T16:36:53.458Z,15.50
2022-09-14T16:39:25.047Z,15.50
2022-09-14T16:42:10.515Z,15.40
2022-09-14T16:44:38.852Z,15.40
2022-09-14T16:47:07.771Z,15.30
2022-09-14T16:49:37.290Z,15.30
2022-09-14T16:52:05.871Z,15.20
2022-09-14T16:54:34.213Z,15.10
2022-09-14T16:57:02.740Z,15.00
2022-09-14T16:59:32.527Z,14.90
2022-09-14T17:02:00.764Z,14.80
2022-09-14T17:04:29.230Z,14.80
2022-09-14T17:06:58.239Z,14.70
2022-09-14T17:09:29.057Z,14.70
2022-09-14T17:11:58.999Z,14.60
2022-09-14T17:14:29.750Z,14.60
2022-09-14T17:17:00.223Z,14.60
2022-09-14T17:19:29.116Z,14.50
2022-09-14T17:21:57.469Z,14.40
2022-09-14T17:24:26.072Z,14.40
2022-09-14T17:26:54.441Z,14.30
2022-09-14T17:29:22.937Z,14.30
2022-09-14T17:31:51.813Z,14.30
2022-09-14T17:34:36.743Z,14.20
2022-09-14T17:37:05.361Z,14.20
2022-09-14T17:39:33.781Z,14.20
2022-09-14T17:42:03.461Z,14.10
2022-09-14T17:44:32.105Z,14.10
2022-09-14T17:47:00.755Z,14.10
2022-09-14T17:49:29.195Z,14.10
2022-09-14T17:51:58.866Z,14.10
2022-09-14T17:54:27.239Z,14.00
2022-09-14T17:56:55.569Z,14.00
2022-09-14T17:59:24.421Z,14.00
2022-09-14T18:01:52.996Z,14.00
2022-09-14T18:04:22.204Z,13.90
2022-09-14T18:06:50.997Z,13.90
2022-09-14T18:09:23.304Z,13.90
2022-09-14T18:11:52.536Z,13.80
2022-09-14T18:14:21.184Z,13.80
2022-09-14T18:16:49.813Z,13.80
2022-09-14T18:19:18.328Z,13.70
2022-09-14T18:21:51.594Z,13.70
2022-09-14T18:24:22.694Z,13.70
2022-09-14T18:26:51.179Z,13.60
2022-09-14T18:29:23.192Z,13.60
2022-09-14T18:31:52.995Z,13.50
2022-09-14T18:34:22.028Z,13.50
2022-09-14T18:36:52.734Z,13.50
2022-09-14T18:39:37.340Z,13.40
2022-09-14T18:42:06.234Z,13.40
2022-09-14T18:44:34.661Z,13.40
2022-09-14T18:47:03.444Z,13.40
2022-09-14T18:49:31.830Z,13.40
2022-09-14T18:52:00.360Z,13.30
2022-09-14T18:54:28.814Z,13.30
2022-09-14T18:57:17.664Z,13.30
2022-09-14T18:59:46.421Z,13.30
2022-09-14T19:02:15.044Z,13.30
2022-09-14T19:04:43.581Z,13.30
2022-09-14T19:07:15.917Z,13.30
2022-09-14T19:09:44.423Z,13.30
2022-09-14T19:12:14.222Z,13.30
2022-09-14T19:14:42.563Z,13.30
2022-09-14T19:17:11.278Z,13.20
2022-09-14T19:19:39.941Z,13.20
2022-09-14T19:22:08.367Z,13.20
2022-09-14T19:24:36.858Z,13.20
2022-09-14T19:27:05.790Z,13.20
2022-09-14T19:29:35.815Z,13.10
2022-09-14T19:32:04.777Z,13.10
2022-09-14T19:34:33.209Z,13.10
2022-09-14T19:37:01.660Z,13.20
2022-09-14T19:39:30.530Z,13.10
2022-09-14T19:41:59.236Z,13.10
2022-09-14T19:44:27.525Z,13.20
2022-09-14T19:47:12.322Z,13.10
2022-09-14T19:50:00.857Z,13.20
2022-09-14T19:52:29.403Z,13.10
2022-09-14T19:54:57.965Z,13.10
2022-09-14T19:57:26.250Z,13.10
2022-09-14T19:59:55.102Z,13.10
2022-09-14T20:02:27.748Z,13.10
2022-09-14T20:04:57.391Z,13.10
2022-09-14T20:07:26.439Z,13.10
2022-09-14T20:09:55.320Z,13.10
2022-09-14T20:12:24.049Z,13.10
2022-09-14T20:14:53.094Z,13.10
2022-09-14T20:17:22.119Z,13.10
2022-09-14T20:20:20.370Z,13.10
2022-09-14T20:22:51.132Z,13.10
2022-09-14T20:25:22.845Z,13.10
2022-09-14T20:27:51.359Z,13.10
2022-09-14T20:30:20.547Z,13.10
2022-09-14T20:32:49.228Z,13.10
2022-09-14T20:35:18.097Z,13.10
2022-09-14T20:37:46.653Z,13.10
2022-09-14T20:40:17.484Z,13.10
2022-09-14T20:42:46.341Z,13.10
2022-09-14T20:45:15.522Z,13.10
2022-09-14T20:47:44.819Z,13.10
2022-09-14T20:50:14.042Z,13.10
2022-09-14T20:52:42.430Z,13.00
2022-09-14T20:55:11.922Z,13.00
2022-09-14T20:57:42.104Z,13.00
2022-09-14T21:00:13.206Z,13.00
2022-09-14T21:02:41.952Z,13.00
2022-09-14T21:05:10.858Z,13.00
2022-09-14T21:07:56.031Z,13.00
2022-09-14T21:10:28.655Z,13.00
2022-09-14T21:12:59.398Z,13.00
2022-09-14T21:15:28.114Z,13.10
2022-09-14T21:17:57.072Z,13.10
2022-09-14T21:20:25.710Z,13.00
2022-09-14T21:22:54.017Z,13.00
2022-09-14T21:25:22.553Z,13.00
2022-09-14T21:27:50.994Z,13.10
2022-09-14T21:30:35.977Z,13.00
2022-09-14T21:33:04.696Z,13.10
2022-09-14T21:35:34.763Z,13.10
2022-09-14T21:38:03.716Z,13.00
2022-09-14T21:40:32.702Z,13.00
2022-09-14T21:43:05.241Z,13.00
2022-09-14T21:45:35.400Z,13.00
2022-09-14T21:48:03.975Z,13.00
2022-09-14T21:50:32.410Z,13.00
2022-09-14T21:53:00.820Z,13.00
2022-09-14T21:55:29.679Z,13.00
2022-09-14T21:57:58.075Z,13.00
2022-09-14T22:00:30.629Z,13.00
2022-09-14T22:03:00.732Z,13.00
2022-09-14T22:05:29.114Z,13.00
2022-09-14T22:07:57.782Z,13.00
2022-09-14T22:10:27.175Z,13.00
2022-09-14T22:12:55.883Z,13.00
2022-09-14T22:15:29.557Z,13.10
2022-09-14T22:18:01.568Z,13.10
2022-09-14T22:20:32.422Z,13.00
2022-09-14T22:23:01.782Z,13.00
2022-09-14T22:25:30.342Z,13.00
2022-09-14T22:28:00.062Z,13.00
2022-09-14T22:30:29.177Z,13.00
2022-09-14T22:32:57.595Z,13.00
2022-09-14T22:35:26.693Z,13.00
2022-09-14T22:37:56.458Z,13.00
2022-09-14T22:40:24.890Z,13.00
2022-09-14T22:42:53.673Z,13.00
2022-09-14T22:45:22.080Z,13.00
2022-09-14T22:47:52.014Z,13.00
2022-09-14T22:50:20.361Z,13.10
2022-09-14T22:52:48.746Z,13.00
2022-09-14T22:55:18.786Z,13.00
2022-09-14T22:57:47.314Z,13.00
2022-09-14T23:00:16.683Z,13.00
2022-09-14T23:02:45.168Z,13.00
2022-09-14T23:05:13.992Z,13.00
2022-09-14T23:07:42.332Z,13.00
2022-09-14T23:10:11.155Z,13.00
2022-09-14T23:12:41.041Z,13.00
2022-09-14T23:15:11.033Z,12.90
2022-09-14T23:17:39.400Z,12.90
2022-09-14T23:20:09.646Z,12.90
2022-09-14T23:22:38.064Z,12.80
2022-09-14T23:25:07.152Z,12.80
2022-09-14T23:27:35.416Z,12.80
2022-09-14T23:30:20.081Z,12.70
2022-09-14T23:32:48.675Z,12.70
2022-09-14T23:35:17.350Z,12.60
2022-09-14T23:37:45.706Z,12.60
2022-09-14T23:40:14.392Z,12.60
2022-09-14T23:42:42.810Z,12.60
2022-09-14T23:45:12.286Z,12.50
2022-09-14T23:47:57.288Z,12.50
2022-09-14T23:50:25.998Z,12.50
2022-09-14T23:52:57.657Z,12.50
2022-09-14T23:55:26.411Z,12.50
2022-09-14T23:57:55.906Z,12.50
